Time;durP1;ratioP1;P1;durP2;ratioP2;P2;SDS_P1;SDS_P2;PMS_P1;PMS_P2;Temp;Humidity;BMP_temperature;BMP_pressure;BME280_temperature;BME280_humidity;BME280_pressure;Samples;Min_cycle;Max_cycle;Signal;HPM_P1;HPM_P2
2022/10/23 00:00:30;;;;;;;11.27;6.97;;;15.00;99.90;;;;;;5135121;27;20551;-73
2022/10/23 00:02:56;;;;;;;9.27;6.83;;;15.00;99.90;;;;;;5135272;27;20175;-73
2022/10/23 00:05:22;;;;;;;9.80;7.10;;;14.90;99.90;;;;;;5134982;27;20732;-73
2022/10/23 00:07:52;;;;;;;12.10;8.10;;;14.90;99.90;;;;;;5135099;27;20205;-73
2022/10/23 00:10:19;;;;;;;9.10;7.00;;;14.90;99.90;;;;;;5135417;27;20813;-73
2022/10/23 00:12:46;;;;;;;12.33;7.60;;;14.90;99.90;;;;;;5116512;27;20415;-72
2022/10/23 00:15:12;;;;;;;8.67;6.73;;;14.90;99.90;;;;;;5135269;27;20923;-72
2022/10/23 00:17:38;;;;;;;10.07;7.40;;;14.80;99.90;;;;;;5116484;27;20408;-72
2022/10/23 00:20:06;;;;;;;9.73;7.00;;;14.80;99.90;;;;;;5135269;27;20862;-72
2022/10/23 00:22:32;;;;;;;11.77;8.40;;;14.80;99.90;;;;;;5134942;27;20523;-73
2022/10/23 00:24:58;;;;;;;8.63;7.13;;;14.70;99.90;;;;;;5115641;28;20477;-73
2022/10/23 00:27:24;;;;;;;8.60;6.80;;;14.70;99.90;;;;;;5116200;28;20776;-73
2022/10/23 00:29:50;;;;;;;10.57;7.70;;;14.70;99.90;;;;;;5134589;27;20188;-73
2022/10/23 00:32:16;;;;;;;8.73;6.90;;;14.70;99.90;;;;;;5134749;27;20403;-73
2022/10/23 00:34:41;;;;;;;10.50;7.50;;;14.70;99.90;;;;;;5116391;27;20443;-73
2022/10/23 00:37:07;;;;;;;9.80;7.30;;;14.70;99.90;;;;;;5134662;27;20171;-73
2022/10/23 00:39:33;;;;;;;12.40;7.90;;;14.70;99.90;;;;;;5116198;28;20203;-73
2022/10/23 00:41:58;;;;;;;9.57;7.13;;;14.80;99.90;;;;;;5134694;28;20171;-73
2022/10/23 00:44:24;;;;;;;11.90;8.87;;;14.80;99.90;;;;;;5116126;28;20191;-72
2022/10/23 00:46:49;;;;;;;9.70;7.50;;;14.80;99.90;;;;;;5134606;28;20576;-73
2022/10/23 00:49:15;;;;;;;9.10;6.77;;;14.80;99.90;;;;;;5116173;28;20244;-73
2022/10/23 00:51:48;;;;;;;11.03;7.90;;;14.80;99.90;;;;;;5134441;28;20210;-73
2022/10/23 00:54:16;;;;;;;9.97;8.20;;;14.80;99.90;;;;;;5134674;28;20970;-73
2022/10/23 00:56:44;;;;;;;9.57;6.80;;;14.80;99.90;;;;;;5134497;28;20416;-73
2022/10/23 00:59:10;;;;;;;9.37;7.30;;;14.80;99.90;;;;;;5134582;28;20616;-73
2022/10/23 01:01:36;;;;;;;9.87;7.60;;;14.80;99.90;;;;;;5134559;28;20542;-73
2022/10/23 01:04:05;;;;;;;12.70;7.73;;;14.80;99.90;;;;;;5134596;28;20895;-73
2022/10/23 01:06:45;;;;;;;11.47;7.43;;;14.80;99.90;;;;;;5116318;28;20463;-73
2022/10/23 01:09:16;;;;;;;11.67;7.97;;;14.80;99.90;;;;;;5134610;28;20438;-72
2022/10/23 01:11:50;;;;;;;12.87;8.23;;;14.80;99.90;;;;;;5115918;28;20919;-72
2022/10/23 01:14:55;;;;;;;8.30;7.40;;;14.80;99.90;;;;;;5116001;28;20774;-73
2022/10/23 01:17:23;;;;;;;10.60;7.50;;;14.80;99.90;;;;;;5082216;28;20456;-73
2022/10/23 01:20:28;;;;;;;13.50;8.10;;;14.70;99.90;;;;;;5134554;28;20478;-72
2022/10/23 01:23:12;;;;;;;9.67;7.80;;;14.70;99.90;;;;;;5134512;28;20414;-72
2022/10/23 01:25:46;;;;;;;12.53;8.00;;;14.70;99.90;;;;;;5134030;28;20463;-72
2022/10/23 01:28:19;;;;;;;10.93;7.50;;;14.70;99.90;;;;;;5115839;28;20418;-73
2022/10/23 01:30:47;;;;;;;10.17;7.47;;;14.70;99.90;;;;;;5134179;28;20855;-73
2022/10/23 01:33:22;;;;;;;13.97;9.80;;;14.70;99.90;;;;;;5134128;28;20396;-73
2022/10/23 01:35:52;;;;;;;13.20;8.80;;;14.80;99.90;;;;;;5115696;28;20426;-73
2022/10/23 01:38:26;;;;;;;10.50;7.67;;;14.80;99.90;;;;;;5117909;27;20434;-73
2022/10/23 01:41:19;;;;;;;14.80;10.87;;;14.80;99.90;;;;;;5137868;27;20553;-73
2022/10/23 01:44:07;;;;;;;11.23;8.23;;;14.80;99.90;;;;;;5138223;27;20431;-74
2022/10/23 01:46:36;;;;;;;12.53;8.70;;;14.80;99.90;;;;;;5136945;27;20427;-72
2022/10/23 01:49:06;;;;;;;11.83;9.10;;;14.80;99.90;;;;;;5137952;27;20923;-73
2022/10/23 01:51:35;;;;;;;10.90;8.10;;;14.80;99.90;;;;;;5137907;27;20876;-73
2022/10/23 01:54:04;;;;;;;10.83;7.60;;;14.90;99.90;;;;;;5137598;27;20981;-73
2022/10/23 01:56:36;;;;;;;13.77;8.50;;;14.90;99.90;;;;;;5137569;27;20403;-73
2022/10/23 01:59:07;;;;;;;10.80;7.63;;;14.90;99.90;;;;;;5137836;27;20509;-73
2022/10/23 02:01:36;;;;;;;10.23;8.33;;;14.90;99.90;;;;;;5137548;27;20965;-73
2022/10/23 02:04:05;;;;;;;10.63;8.17;;;14.90;99.90;;;;;;5137643;27;20411;-73
2022/10/23 02:06:31;;;;;;;11.07;7.23;;;14.90;99.90;;;;;;5119036;27;20938;-73
2022/10/23 02:08:57;;;;;;;11.40;8.57;;;15.00;99.90;;;;;;5137528;27;20423;-73
2022/10/23 02:11:22;;;;;;;13.40;8.70;;;15.00;99.90;;;;;;5118941;27;20655;-73
2022/10/23 02:14:00;;;;;;;9.63;7.83;;;15.00;99.90;;;;;;5137408;27;20210;-72
2022/10/23 02:16:35;;;;;;;11.67;8.30;;;15.00;99.90;;;;;;5137362;27;20186;-73
2022/10/23 02:19:06;;;;;;;10.13;7.77;;;15.10;99.90;;;;;;5118634;27;20430;-73
2022/10/23 02:21:52;;;;;;;11.17;7.07;;;15.10;99.90;;;;;;5137211;27;20451;-73
2022/10/23 02:24:34;;;;;;;11.47;8.70;;;15.10;99.90;;;;;;5118536;27;20502;-73
2022/10/23 02:27:10;;;;;;;12.10;8.13;;;15.10;99.90;;;;;;5137045;27;20436;-73
2022/10/23 02:29:48;;;;;;;11.93;9.60;;;15.20;99.90;;;;;;5137262;27;20491;-73
2022/10/23 02:32:16;;;;;;;10.90;8.83;;;15.20;99.90;;;;;;5136991;27;20390;-73
2022/10/23 02:34:42;;;;;;;10.83;7.67;;;15.20;99.90;;;;;;5137176;27;20447;-73
2022/10/23 02:37:07;;;;;;;9.47;7.43;;;15.20;99.90;;;;;;5136869;27;20395;-73
2022/10/23 02:39:33;;;;;;;10.10;7.73;;;15.20;99.90;;;;;;5118150;27;20291;-73
2022/10/23 02:42:11;;;;;;;12.17;9.20;;;15.20;99.90;;;;;;5118347;27;20178;-73
2022/10/23 02:45:03;;;;;;;12.97;7.90;;;15.20;99.90;;;;;;5118460;27;20198;-72
2022/10/23 02:48:02;;;;;;;10.80;7.40;;;15.20;99.90;;;;;;5118243;27;20830;-72
2022/10/23 02:50:34;;;;;;;10.60;8.30;;;15.20;99.90;;;;;;5136679;27;20772;-73
2022/10/23 02:53:34;;;;;;;11.47;8.10;;;15.20;99.90;;;;;;5136531;27;20907;-73
2022/10/23 02:56:29;;;;;;;11.30;8.03;;;15.20;99.90;;;;;;5136489;27;20427;-73
2022/10/23 02:59:17;;;;;;;10.60;7.70;;;15.20;99.90;;;;;;5136845;27;20411;-73
2022/10/23 03:01:59;;;;;;;10.03;7.37;;;15.20;99.90;;;;;;5136387;27;20779;-73
2022/10/23 03:04:26;;;;;;;12.50;7.97;;;15.20;99.90;;;;;;5136680;27;20802;-73
2022/10/23 03:06:52;;;;;;;11.40;7.97;;;15.20;99.90;;;;;;5136313;27;20863;-72
2022/10/23 03:09:18;;;;;;;10.50;7.30;;;15.20;99.90;;;;;;5136362;27;20452;-73
2022/10/23 03:11:44;;;;;;;12.33;8.13;;;15.20;99.90;;;;;;5136181;27;20219;-73
2022/10/23 03:14:12;;;;;;;14.47;7.00;;;15.20;99.90;;;;;;5136213;27;20190;-73
2022/10/23 03:16:37;;;;;;;8.97;7.40;;;15.20;99.90;;;;;;5136123;27;20178;-73
2022/10/23 03:19:03;;;;;;;11.50;8.60;;;15.20;99.90;;;;;;5117712;27;20427;-73
2022/10/23 03:21:29;;;;;;;9.90;7.87;;;15.10;99.90;;;;;;5135812;27;20206;-73
2022/10/23 03:23:55;;;;;;;10.40;8.13;;;15.10;99.90;;;;;;5135792;27;20246;-73
2022/10/23 03:26:20;;;;;;;11.20;8.20;;;15.10;99.90;;;;;;5135832;27;20199;-73
2022/10/23 03:28:46;;;;;;;11.10;7.23;;;15.10;99.90;;;;;;5136036;27;20198;-72
2022/10/23 03:31:12;;;;;;;11.40;7.53;;;15.10;99.90;;;;;;5117295;27;20656;-72
2022/10/23 03:33:37;;;;;;;9.80;7.27;;;15.10;99.90;;;;;;5135871;27;20609;-73
2022/10/23 03:36:03;;;;;;;11.67;8.70;;;15.10;99.90;;;;;;5117250;27;20195;-73
2022/10/23 03:38:29;;;;;;;10.83;7.60;;;15.10;99.90;;;;;;5135611;27;20172;-73
2022/10/23 03:40:54;;;;;;;9.80;7.77;;;15.10;99.90;;;;;;5117090;27;20471;-73
2022/10/23 03:43:20;;;;;;;10.30;7.90;;;15.10;99.90;;;;;;5135732;27;20276;-73
2022/10/23 03:45:45;;;;;;;10.70;8.00;;;15.10;99.90;;;;;;5135518;27;20194;-73
2022/10/23 03:48:11;;;;;;;10.90;7.43;;;15.10;99.90;;;;;;5135502;27;20250;-73
2022/10/23 03:50:37;;;;;;;12.17;8.47;;;15.10;99.90;;;;;;5116889;27;20647;-73
2022/10/23 03:53:02;;;;;;;11.03;8.27;;;15.10;99.90;;;;;;5116936;27;20179;-73
2022/10/23 03:55:28;;;;;;;12.07;8.53;;;15.10;99.90;;;;;;5135287;27;20199;-73
2022/10/23 03:57:54;;;;;;;11.30;7.60;;;15.20;99.90;;;;;;5135461;27;20658;-73
2022/10/23 04:00:20;;;;;;;10.33;8.17;;;15.20;99.90;;;;;;5116063;27;20897;-73
2022/10/23 04:02:46;;;;;;;10.70;7.30;;;15.20;99.90;;;;;;5135329;27;20183;-73
2022/10/23 04:05:12;;;;;;;9.03;6.83;;;15.20;99.90;;;;;;5135436;27;20427;-72
2022/10/23 04:07:38;;;;;;;10.97;7.27;;;15.20;99.90;;;;;;5135189;27;20895;-73
2022/10/23 04:10:05;;;;;;;10.43;7.43;;;15.20;99.90;;;;;;5135561;27;20484;-73
2022/10/23 04:12:30;;;;;;;9.77;7.23;;;15.20;99.90;;;;;;5116701;27;20171;-73
2022/10/23 04:14:56;;;;;;;9.83;7.73;;;15.20;99.90;;;;;;5116539;27;20863;-73
2022/10/23 04:17:22;;;;;;;12.63;8.30;;;15.20;99.90;;;;;;5134998;27;20171;-73
2022/10/23 04:19:47;;;;;;;11.00;7.87;;;15.20;99.90;;;;;;5135132;27;20222;-73
2022/10/23 04:22:13;;;;;;;10.00;7.63;;;15.20;99.90;;;;;;5134849;27;20167;-73
2022/10/23 04:24:44;;;;;;;13.57;7.93;;;15.20;99.90;;;;;;5116189;27;20230;-74
2022/10/23 04:27:09;;;;;;;8.70;6.70;;;15.20;99.90;;;;;;5134966;27;20660;-73
2022/10/23 04:29:35;;;;;;;10.37;7.20;;;15.20;99.90;;;;;;5135118;27;20486;-73
2022/10/23 04:32:01;;;;;;;8.47;6.93;;;15.30;99.90;;;;;;5116398;27;20175;-73
2022/10/23 04:34:26;;;;;;;8.37;6.70;;;15.30;99.90;;;;;;5134944;27;20281;-75
2022/10/23 04:36:52;;;;;;;9.73;7.60;;;15.30;99.90;;;;;;5134722;27;20224;-73
2022/10/23 04:39:17;;;;;;;9.13;7.10;;;15.30;99.90;;;;;;5116310;28;20215;-73
2022/10/23 04:41:43;;;;;;;8.87;6.70;;;15.30;99.90;;;;;;5116333;28;20217;-73
2022/10/23 04:44:08;;;;;;;9.67;7.90;;;15.30;99.90;;;;;;5134728;28;20214;-73
2022/10/23 04:46:34;;;;;;;9.07;6.90;;;15.30;99.90;;;;;;5134754;28;20542;-73
2022/10/23 04:49:00;;;;;;;11.80;8.37;;;15.30;99.90;;;;;;5116226;28;20202;-72
2022/10/23 04:51:25;;;;;;;12.50;8.27;;;15.30;99.90;;;;;;5134584;28;20199;-73
2022/10/23 04:53:51;;;;;;;11.53;7.70;;;15.30;99.90;;;;;;5134718;28;20209;-73
2022/10/23 04:56:17;;;;;;;11.63;7.90;;;15.30;99.90;;;;;;5134467;28;20636;-73
2022/10/23 04:58:42;;;;;;;9.27;7.20;;;15.30;99.90;;;;;;5134435;28;20167;-73
2022/10/23 05:01:11;;;;;;;8.10;7.30;;;15.20;99.90;;;;;;5134354;28;20469;-73
2022/10/23 05:03:37;;;;;;;10.60;7.33;;;15.20;99.90;;;;;;5116007;28;20175;-73
2022/10/23 05:06:03;;;;;;;11.37;7.77;;;15.20;99.90;;;;;;5134345;28;20935;-73
2022/10/23 05:08:30;;;;;;;11.90;8.37;;;15.10;99.90;;;;;;5134493;28;20494;-73
2022/10/23 05:10:55;;;;;;;10.57;7.70;;;15.10;99.90;;;;;;5115950;27;20423;-73
2022/10/23 05:13:21;;;;;;;11.10;8.07;;;15.10;99.90;;;;;;5138536;27;20415;-73
2022/10/23 05:15:48;;;;;;;9.03;7.33;;;15.10;99.90;;;;;;5138365;27;20583;-73
2022/10/23 05:18:20;;;;;;;12.63;8.30;;;15.10;99.90;;;;;;5138308;27;20404;-73
2022/10/23 05:20:49;;;;;;;11.00;7.60;;;15.10;99.90;;;;;;5138418;27;20454;-73
2022/10/23 05:23:18;;;;;;;12.37;8.00;;;15.10;99.90;;;;;;5119841;27;20431;-72
2022/10/23 05:25:44;;;;;;;12.80;8.20;;;15.10;99.90;;;;;;5138016;27;20481;-73
2022/10/23 05:28:10;;;;;;;11.57;7.90;;;15.10;99.90;;;;;;5138197;27;20399;-73
2022/10/23 05:30:36;;;;;;;12.33;9.10;;;15.10;99.90;;;;;;5119754;27;20194;-73
2022/10/23 05:33:03;;;;;;;11.63;7.63;;;15.10;99.90;;;;;;5138090;27;20691;-73
2022/10/23 05:35:29;;;;;;;15.83;7.63;;;15.10;99.90;;;;;;5138026;27;20961;-73
2022/10/23 05:37:57;;;;;;;9.67;7.77;;;15.10;99.90;;;;;;5119577;27;20460;-73
2022/10/23 05:40:23;;;;;;;12.07;8.60;;;15.10;99.90;;;;;;5137782;27;20868;-73
2022/10/23 05:42:48;;;;;;;11.90;8.00;;;15.10;99.90;;;;;;5119628;27;20532;-73
2022/10/23 05:45:15;;;;;;;12.30;9.27;;;15.10;99.90;;;;;;5119458;27;20537;-73
2022/10/23 05:47:43;;;;;;;9.37;8.03;;;15.10;99.90;;;;;;5137694;27;20304;-73
2022/10/23 05:50:08;;;;;;;10.10;8.33;;;15.10;99.90;;;;;;5119380;27;21014;-73
2022/10/23 05:52:34;;;;;;;10.90;7.90;;;15.10;99.90;;;;;;5137825;27;20497;-73
2022/10/23 05:55:00;;;;;;;15.10;9.33;;;15.10;99.90;;;;;;5137955;27;20206;-73
2022/10/23 05:57:25;;;;;;;11.57;8.67;;;15.20;99.90;;;;;;5119296;27;20175;-73
2022/10/23 05:59:51;;;;;;;11.83;8.70;;;15.20;99.90;;;;;;5137909;27;20202;-74
2022/10/23 06:02:17;;;;;;;13.77;8.60;;;15.20;99.90;;;;;;5137560;27;20201;-73
2022/10/23 06:04:42;;;;;;;12.43;8.13;;;15.30;99.90;;;;;;5137886;27;20575;-73
2022/10/23 06:07:08;;;;;;;14.10;9.80;;;15.30;99.90;;;;;;5137446;27;20173;-73
2022/10/23 06:09:33;;;;;;;13.87;8.03;;;15.30;99.90;;;;;;5137701;27;20253;-73
2022/10/23 06:12:01;;;;;;;12.97;9.30;;;15.30;99.90;;;;;;5137415;27;20173;-73
2022/10/23 06:14:27;;;;;;;11.57;8.10;;;15.30;99.90;;;;;;5137563;27;20550;-73
2022/10/23 06:16:52;;;;;;;10.13;8.30;;;15.30;99.90;;;;;;5118827;27;20422;-72
2022/10/23 06:19:18;;;;;;;12.60;9.03;;;15.30;99.90;;;;;;5137370;27;20584;-73
2022/10/23 06:21:44;;;;;;;11.33;8.80;;;15.30;99.90;;;;;;5115987;27;20211;-73
2022/10/23 06:24:09;;;;;;;12.13;9.03;;;15.30;99.90;;;;;;5135377;27;20297;-73
2022/10/23 06:26:35;;;;;;;16.23;8.70;;;15.40;99.90;;;;;;5118211;27;20178;-73
2022/10/23 06:29:00;;;;;;;9.73;7.30;;;15.40;99.90;;;;;;5136661;27;20187;-73
2022/10/23 06:31:27;;;;;;;11.50;9.37;;;15.40;99.90;;;;;;5136471;27;20191;-73
2022/10/23 06:33:57;;;;;;;12.53;9.27;;;15.40;99.90;;;;;;5118142;27;20232;-73
2022/10/23 06:36:23;;;;;;;13.30;9.23;;;15.50;99.90;;;;;;5118071;27;20438;-73
2022/10/23 06:38:49;;;;;;;10.87;8.07;;;15.50;99.90;;;;;;5135725;27;20442;-73
2022/10/23 06:41:18;;;;;;;9.87;8.27;;;15.50;99.90;;;;;;5136634;27;20459;-73
2022/10/23 06:43:46;;;;;;;11.10;8.50;;;15.60;99.90;;;;;;5136766;27;20632;-72
2022/10/23 06:46:11;;;;;;;12.13;8.43;;;15.60;99.90;;;;;;5118075;27;20441;-71
2022/10/23 06:48:37;;;;;;;12.60;8.73;;;15.60;99.90;;;;;;5136399;27;20415;-75
2022/10/23 06:51:08;;;;;;;9.87;8.13;;;15.70;99.90;;;;;;5136481;27;20191;-76
2022/10/23 06:53:34;;;;;;;9.10;8.10;;;15.70;99.90;;;;;;5136453;27;20198;-74
2022/10/23 06:56:01;;;;;;;10.87;8.30;;;15.80;99.90;;;;;;5116973;27;20487;-72
2022/10/23 06:58:27;;;;;;;10.67;8.20;;;15.80;99.90;;;;;;5135312;27;20476;-72
2022/10/23 07:00:53;;;;;;;9.70;8.67;;;15.80;99.90;;;;;;5135043;27;20459;-72
2022/10/23 07:03:19;;;;;;;12.23;8.20;;;15.90;99.90;;;;;;5117908;27;20179;-72
2022/10/23 07:05:46;;;;;;;23.70;8.43;;;16.00;99.90;;;;;;5134840;27;20530;-72
2022/10/23 07:08:12;;;;;;;10.20;7.30;;;16.00;99.90;;;;;;5136076;27;20167;-71
2022/10/23 07:10:37;;;;;;;11.07;7.70;;;16.10;99.90;;;;;;5136244;27;20930;-71
2022/10/23 07:13:03;;;;;;;9.87;7.30;;;16.30;99.90;;;;;;5135408;27;20396;-73
2022/10/23 07:15:29;;;;;;;16.07;7.17;;;16.50;99.90;;;;;;5133895;27;20187;-74
2022/10/23 07:17:55;;;;;;;12.67;8.60;;;16.70;99.90;;;;;;5115185;27;20175;-72
2022/10/23 07:20:20;;;;;;;8.20;6.50;;;16.70;99.90;;;;;;5116214;27;20479;-73
2022/10/23 07:22:51;;;;;;;9.93;6.90;;;16.80;99.90;;;;;;5135624;27;20170;-74
2022/10/23 07:25:16;;;;;;;9.73;7.70;;;16.90;99.90;;;;;;5135753;27;20227;-74
2022/10/23 07:27:42;;;;;;;8.43;6.67;;;17.10;99.90;;;;;;5117355;27;20923;-72
2022/10/23 07:30:08;;;;;;;10.60;6.80;;;17.20;99.90;;;;;;5135856;27;20206;-74
2022/10/23 07:32:33;;;;;;;7.63;6.37;;;17.40;99.90;;;;;;5135643;27;20176;-73
2022/10/23 07:35:00;;;;;;;6.93;5.80;;;17.60;99.90;;;;;;5135131;27;20463;-73
2022/10/23 07:37:28;;;;;;;6.90;5.70;;;17.90;99.90;;;;;;5116802;27;20174;-72
2022/10/23 07:39:54;;;;;;;10.47;8.70;;;18.30;99.90;;;;;;5135178;27;20461;-71
2022/10/23 07:42:19;;;;;;;8.37;7.13;;;18.80;99.90;;;;;;5135282;27;20523;-73
2022/10/23 07:44:45;;;;;;;6.50;5.90;;;19.40;99.90;;;;;;5135612;27;20210;-73
2022/10/23 07:47:11;;;;;;;5.50;5.00;;;20.10;99.90;;;;;;5135172;27;20209;-73
2022/10/23 07:49:36;;;;;;;6.40;5.30;;;20.80;99.90;;;;;;5135513;27;20234;-72
2022/10/23 07:52:04;;;;;;;6.50;5.20;;;21.50;99.90;;;;;;5133682;27;20175;-72
2022/10/23 07:54:29;;;;;;;5.53;5.03;;;22.30;99.90;;;;;;5130799;27;20191;-74
2022/10/23 07:56:55;;;;;;;6.40;5.73;;;23.10;99.90;;;;;;5115501;27;20419;-72
2022/10/23 07:59:21;;;;;;;9.10;8.23;;;23.60;99.90;;;;;;5134776;27;20192;-74
2022/10/23 08:01:47;;;;;;;5.97;5.13;;;24.30;99.90;;;;;;5150976;27;20203;-72
2022/10/23 08:04:13;;;;;;;7.73;5.03;;;25.00;99.90;;;;;;5116678;27;20237;-74
2022/10/23 08:06:38;;;;;;;7.70;5.80;;;25.40;99.90;;;;;;5134930;27;20398;-72
2022/10/23 08:09:04;;;;;;;5.87;5.37;;;25.90;99.90;;;;;;5134896;27;20436;-72
2022/10/23 08:11:34;;;;;;;6.00;5.40;;;26.40;99.90;;;;;;5131546;27;20190;-71
2022/10/23 08:14:03;;;;;;;4.87;4.40;;;26.90;99.90;;;;;;5134927;27;20296;-70
2022/10/23 08:16:30;;;;;;;5.90;4.80;;;27.40;99.90;;;;;;5133990;27;20832;-75
2022/10/23 08:18:55;;;;;;;4.80;4.40;;;27.90;99.90;;;;;;5115491;27;20440;-73
2022/10/23 08:21:21;;;;;;;5.10;4.60;;;28.40;99.90;;;;;;5115393;28;20462;-72
2022/10/23 08:23:47;;;;;;;5.20;4.57;;;28.80;99.90;;;;;;5150253;27;20183;-75
2022/10/23 08:26:12;;;;;;;5.10;4.60;;;29.20;99.90;;;;;;5115540;27;20230;-73
2022/10/23 08:28:38;;;;;;;4.83;4.40;;;29.50;99.90;;;;;;5134431;27;20230;-71
2022/10/23 08:31:16;;;;;;;5.80;5.30;;;29.90;99.90;;;;;;5134057;27;20230;-74
2022/10/23 08:33:42;;;;;;;5.70;5.20;;;30.10;99.90;;;;;;5134094;27;20184;-76
2022/10/23 08:36:21;;;;;;;4.80;4.37;;;30.20;99.90;;;;;;5150011;27;20446;-72
2022/10/23 08:38:47;;;;;;;5.67;5.10;;;29.90;99.90;;;;;;5134313;27;20751;-75
2022/10/23 08:41:34;;;;;;;6.60;4.93;;;29.40;99.90;;;;;;5133635;27;20558;-74
2022/10/23 08:44:22;;;;;;;6.63;5.37;;;28.90;99.90;;;;;;5134050;28;20410;-75
2022/10/23 08:47:07;;;;;;;6.23;5.63;;;28.30;99.90;;;;;;5119031;27;20518;-70
2022/10/23 08:49:32;;;;;;;6.00;4.90;;;27.80;99.90;;;;;;5122456;27;20453;-72
2022/10/23 08:52:01;;;;;;;5.60;5.10;;;27.30;99.90;;;;;;5140778;27;20494;-72
2022/10/23 08:54:30;;;;;;;5.73;5.20;;;26.90;99.90;;;;;;5140843;27;20202;-72
2022/10/23 08:57:17;;;;;;;6.00;5.43;;;26.50;99.90;;;;;;5140662;27;20423;-71
2022/10/23 08:59:45;;;;;;;8.77;5.73;;;26.10;99.90;;;;;;5120614;27;20469;-74
2022/10/23 09:02:31;;;;;;;6.60;6.00;;;25.80;99.90;;;;;;5139212;27;20425;-71
2022/10/23 09:04:58;;;;;;;6.33;5.70;;;25.40;99.90;;;;;;5117590;27;20467;-74
2022/10/23 09:07:54;;;;;;;5.60;5.10;;;25.00;99.90;;;;;;5139592;27;20413;-72
2022/10/23 09:10:56;;;;;;;7.40;6.27;;;24.60;99.90;;;;;;5140029;27;20924;-74
2022/10/23 09:13:57;;;;;;;6.30;5.70;;;24.20;99.90;;;;;;5138966;27;20433;-73
2022/10/23 09:17:15;;;;;;;6.70;5.97;;;23.90;99.90;;;;;;5119059;28;20412;-73
2022/10/23 09:19:42;;;;;;;6.70;5.50;;;23.50;99.90;;;;;;5083782;28;20498;-72
2022/10/23 09:22:09;;;;;;;6.00;5.33;;;23.30;99.90;;;;;;5103422;27;20543;-73
2022/10/23 09:24:35;;;;;;;7.40;6.70;;;23.00;99.90;;;;;;5139649;27;20467;-70
2022/10/23 09:27:01;;;;;;;6.27;5.63;;;22.80;99.90;;;;;;5121407;27;21036;-74
2022/10/23 09:29:31;;;;;;;7.10;6.50;;;22.60;99.90;;;;;;5139481;27;20513;-71
2022/10/23 09:32:05;;;;;;;8.80;7.07;;;22.40;99.90;;;;;;5121933;27;20215;-70
2022/10/23 09:34:33;;;;;;;6.13;5.50;;;22.30;99.90;;;;;;5121294;27;20438;-71
2022/10/23 09:37:19;;;;;;;5.87;5.07;;;22.30;99.90;;;;;;5120968;27;20445;-71
2022/10/23 09:39:45;;;;;;;6.23;5.60;;;22.20;99.90;;;;;;5121321;27;20795;-73
2022/10/23 09:42:29;;;;;;;7.30;6.60;;;22.10;99.90;;;;;;5139745;27;20403;-73
2022/10/23 09:44:56;;;;;;;7.50;6.30;;;21.90;99.90;;;;;;5140060;27;20499;-75
2022/10/23 09:47:24;;;;;;;8.63;6.50;;;21.80;99.90;;;;;;5139628;27;20410;-74
2022/10/23 09:49:52;;;;;;;7.83;6.60;;;21.60;99.90;;;;;;5140032;27;20554;-71
2022/10/23 09:52:31;;;;;;;8.07;6.97;;;21.40;99.90;;;;;;5139557;27;20410;-72
2022/10/23 09:54:59;;;;;;;7.33;6.23;;;21.40;99.90;;;;;;5139255;27;21005;-70
2022/10/23 09:57:41;;;;;;;7.90;7.10;;;21.30;99.90;;;;;;5120182;27;20411;-72
2022/10/23 10:00:12;;;;;;;8.50;7.70;;;21.20;99.90;;;;;;5136468;27;20474;-72
2022/10/23 10:02:39;;;;;;;9.23;7.63;;;21.10;99.90;;;;;;5136398;27;20438;-73
2022/10/23 10:05:23;;;;;;;7.87;7.17;;;21.00;99.90;;;;;;5136536;27;20442;-71
2022/10/23 10:08:22;;;;;;;9.67;8.70;;;20.80;99.90;;;;;;5136194;27;20403;-71
2022/10/23 10:10:53;;;;;;;10.67;8.90;;;20.70;99.90;;;;;;5130927;27;20962;-71
2022/10/23 10:13:33;;;;;;;11.33;10.20;;;20.40;99.90;;;;;;5117549;27;20526;-70
2022/10/23 10:16:28;;;;;;;11.00;9.67;;;20.10;99.90;;;;;;5136050;27;20462;-77
2022/10/23 10:19:04;;;;;;;10.60;9.50;;;19.90;99.90;;;;;;5123639;27;20947;-71
2022/10/23 10:22:09;;;;;;;12.63;8.80;;;19.80;99.90;;;;;;5133149;27;20970;-70
2022/10/23 10:24:51;;;;;;;10.50;9.37;;;19.70;99.90;;;;;;5131301;27;20578;-72
2022/10/23 10:27:44;;;;;;;10.03;9.03;;;19.60;99.90;;;;;;5135481;27;20693;-71
2022/10/23 10:30:13;;;;;;;8.93;8.03;;;19.50;99.90;;;;;;5116954;27;20453;-71
2022/10/23 10:33:04;;;;;;;9.50;8.47;;;19.50;99.90;;;;;;5135342;27;20411;-72
2022/10/23 10:36:02;;;;;;;10.87;9.77;;;19.50;99.90;;;;;;5135686;27;20526;-69
2022/10/23 10:38:43;;;;;;;11.00;9.00;;;19.50;99.90;;;;;;5135861;27;20454;-74
2022/10/23 10:41:46;;;;;;;11.23;9.27;;;19.40;99.90;;;;;;5135398;27;20461;-71
2022/10/23 10:44:29;;;;;;;9.03;7.93;;;19.40;99.90;;;;;;5135420;27;20430;-72
2022/10/23 10:46:58;;;;;;;11.13;9.17;;;19.40;99.90;;;;;;5135758;27;20417;-71
2022/10/23 10:49:43;;;;;;;10.47;8.87;;;19.40;99.90;;;;;;5135611;27;20426;-70
2022/10/23 10:52:16;;;;;;;10.07;9.03;;;19.20;99.90;;;;;;5135187;27;20398;-71
2022/10/23 10:54:55;;;;;;;11.77;9.87;;;19.20;99.90;;;;;;5117300;27;20450;-70
2022/10/23 10:57:38;;;;;;;11.20;9.10;;;19.10;99.90;;;;;;5116964;27;20414;-73
2022/10/23 11:00:17;;;;;;;11.40;9.10;;;19.10;99.90;;;;;;5116785;27;20473;-71
2022/10/23 11:02:50;;;;;;;10.93;9.20;;;19.10;99.90;;;;;;5135607;27;20423;-75
2022/10/23 11:05:37;;;;;;;10.23;9.10;;;19.20;99.90;;;;;;5135545;27;20942;-73
2022/10/23 11:08:33;;;;;;;10.93;9.67;;;19.20;99.90;;;;;;5135119;27;20413;-77
2022/10/23 11:11:21;;;;;;;10.50;9.17;;;19.20;99.90;;;;;;5135597;27;20433;-72
2022/10/23 11:13:52;;;;;;;11.00;9.80;;;19.20;99.90;;;;;;5116828;27;20501;-69
2022/10/23 11:16:28;;;;;;;10.10;8.47;;;19.20;99.90;;;;;;5134823;27;20458;-70
2022/10/23 11:19:13;;;;;;;10.10;8.70;;;19.20;99.90;;;;;;5135237;27;20895;-79
2022/10/23 11:21:46;;;;;;;10.23;8.70;;;19.20;99.90;;;;;;5082944;27;20475;-71
2022/10/23 11:24:38;;;;;;;9.27;8.20;;;19.10;99.90;;;;;;5134859;27;20469;-74
2022/10/23 11:27:18;;;;;;;9.10;8.20;;;19.10;99.90;;;;;;5134815;27;20438;-76
2022/10/23 11:29:48;;;;;;;9.43;8.37;;;19.00;99.90;;;;;;5135340;27;20930;-70
2022/10/23 11:32:42;;;;;;;9.10;8.20;;;19.00;99.90;;;;;;5135043;27;20490;-70
2022/10/23 11:35:43;;;;;;;8.87;8.00;;;19.10;99.90;;;;;;5116532;27;20461;-77
2022/10/23 11:38:17;;;;;;;10.40;8.13;;;19.10;99.90;;;;;;5080945;27;20406;-74
2022/10/23 11:40:50;;;;;;;8.73;7.83;;;19.10;99.90;;;;;;5134664;27;20472;-73
2022/10/23 11:43:26;;;;;;;9.20;7.73;;;19.10;99.90;;;;;;5134634;27;20393;-75
2022/10/23 11:45:52;;;;;;;9.37;8.47;;;19.10;99.90;;;;;;5134473;27;20441;-72
2022/10/23 11:48:39;;;;;;;9.43;8.50;;;19.20;99.90;;;;;;5116228;27;20510;-72
2022/10/23 11:51:25;;;;;;;10.33;8.27;;;19.20;99.90;;;;;;5113576;27;20194;-75
2022/10/23 11:53:50;;;;;;;9.40;8.47;;;19.20;99.90;;;;;;5129230;27;20938;-75
2022/10/23 11:56:18;;;;;;;8.57;7.77;;;19.20;99.90;;;;;;5132660;27;20478;-70
2022/10/23 11:58:51;;;;;;;9.20;8.30;;;19.10;99.90;;;;;;5133404;27;20179;-75
2022/10/23 12:01:25;;;;;;;10.83;9.77;;;19.10;99.90;;;;;;5114806;27;21401;-75
2022/10/23 12:04:19;;;;;;;9.40;8.50;;;19.10;99.90;;;;;;5133971;27;20940;-71
2022/10/23 12:07:16;;;;;;;11.17;10.00;;;19.10;99.90;;;;;;5132077;27;20513;-73
2022/10/23 12:09:56;;;;;;;10.27;8.43;;;19.10;99.90;;;;;;5132347;27;20439;-78
2022/10/23 12:12:32;;;;;;;9.73;8.47;;;19.10;99.90;;;;;;5131731;27;20407;-74
2022/10/23 12:15:10;;;;;;;10.30;8.77;;;19.00;99.90;;;;;;5131555;27;20438;-77
2022/10/23 12:17:41;;;;;;;11.73;8.37;;;19.00;99.90;;;;;;5131995;27;20413;-75
2022/10/23 12:20:12;;;;;;;9.90;8.63;;;19.00;99.90;;;;;;5132358;27;21008;-74
2022/10/23 12:22:49;;;;;;;13.03;8.30;;;18.90;99.90;;;;;;5131351;27;20907;-74
2022/10/23 12:25:33;;;;;;;10.40;9.33;;;18.90;99.90;;;;;;5132898;27;20558;-74
2022/10/23 12:28:30;;;;;;;10.90;8.60;;;18.80;99.90;;;;;;5115131;27;20921;-72
2022/10/23 12:31:15;;;;;;;9.13;8.23;;;18.80;99.90;;;;;;5114973;27;20443;-73
2022/10/23 12:33:46;;;;;;;8.90;8.00;;;18.80;99.90;;;;;;5133737;27;20424;-74
2022/10/23 12:36:14;;;;;;;10.77;8.47;;;18.80;99.90;;;;;;5133394;27;20510;-74
2022/10/23 12:38:45;;;;;;;10.47;8.73;;;18.80;99.90;;;;;;5115043;27;20418;-75
2022/10/23 12:41:25;;;;;;;9.60;8.60;;;18.80;99.90;;;;;;5114029;28;20564;-73
2022/10/23 12:43:55;;;;;;;16.40;12.60;;;18.80;99.90;;;;;;5133398;27;20751;-77
2022/10/23 12:46:40;;;;;;;41.87;26.50;;;18.80;99.90;;;;;;5133273;27;20937;-73
2022/10/23 12:49:21;;;;;;;11.53;9.53;;;18.90;99.90;;;;;;5133123;27;20467;-75
2022/10/23 12:52:05;;;;;;;9.50;8.50;;;18.90;99.90;;;;;;5133490;28;20445;-71
2022/10/23 12:54:37;;;;;;;8.90;7.97;;;18.90;99.90;;;;;;5133755;27;20469;-71
2022/10/23 12:57:19;;;;;;;14.80;13.27;;;18.90;99.90;;;;;;5133506;28;20378;-70
2022/10/23 12:59:45;;;;;;;10.17;9.10;;;19.00;99.90;;;;;;5114736;28;20496;-68
2022/10/23 13:02:37;;;;;;;11.67;8.50;;;19.00;99.90;;;;;;5133048;28;20443;-71
2022/10/23 13:05:06;;;;;;;10.23;8.33;;;19.00;99.90;;;;;;5129065;27;20263;-73